createdAt,value
2018-08-04T00:00:25.485Z,72.07
2018-08-04T00:00:56.647Z,71.81
2018-08-04T00:01:27.812Z,71.74
2018-08-04T00:01:58.987Z,71.41
2018-08-04T00:02:30.124Z,71.42
2018-08-04T00:03:01.289Z,71.81
2018-08-04T00:03:32.457Z,71.78
2018-08-04T00:04:03.632Z,71.82
2018-08-04T00:04:34.864Z,71.77
2018-08-04T00:05:06.084Z,71.96
2018-08-04T00:05:37.258Z,72.10
2018-08-04T00:06:08.453Z,72.07
2018-08-04T00:06:39.627Z,71.26
2018-08-04T00:07:10.888Z,71.23
2018-08-04T00:07:42.130Z,72.04
2018-08-04T00:08:13.313Z,71.07
2018-08-04T00:08:44.422Z,71.96
2018-08-04T00:09:15.538Z,71.91
2018-08-04T00:09:46.682Z,71.93
2018-08-04T00:10:17.851Z,71.52
2018-08-04T00:10:49.018Z,71.73
2018-08-04T00:11:20.246Z,71.73
2018-08-04T00:11:51.488Z,71.66
2018-08-04T00:12:22.773Z,71.60
2018-08-04T00:12:53.896Z,70.75
2018-08-04T00:13:25.063Z,70.78
2018-08-04T00:13:56.239Z,71.33
2018-08-04T00:14:27.451Z,70.70
2018-08-04T00:14:59.092Z,70.57
2018-08-04T00:15:30.256Z,70.47
2018-08-04T00:16:01.490Z,70.63
2018-08-04T00:16:32.615Z,70.89
2018-08-04T00:17:03.780Z,70.15
2018-08-04T00:17:34.929Z,70.83
2018-08-04T00:18:06.151Z,70.19
2018-08-04T00:18:37.386Z,71.09
2018-08-04T00:19:08.565Z,70.34
2018-08-04T00:19:39.796Z,70.47
2018-08-04T00:20:11.320Z,70.54
2018-08-04T00:20:42.532Z,69.96
2018-08-04T00:21:14.066Z,69.49
2018-08-04T00:21:45.311Z,70.02
2018-08-04T00:22:16.497Z,69.39
2018-08-04T00:22:47.624Z,70.15
2018-08-04T00:23:18.739Z,69.58
2018-08-04T00:23:49.883Z,70.34
2018-08-04T00:24:21.052Z,70.08
2018-08-04T00:24:52.312Z,69.97
2018-08-04T00:25:23.546Z,70.63
2018-08-04T00:25:54.720Z,69.61
2018-08-04T00:26:25.908Z,69.70
2018-08-04T00:26:57.133Z,69.88
2018-08-04T00:27:28.265Z,70.00
2018-08-04T00:27:59.378Z,70.59
2018-08-04T00:28:30.495Z,70.58
2018-08-04T00:29:01.657Z,70.65
2018-08-04T00:29:32.833Z,70.29
2018-08-04T00:30:04.000Z,70.91
2018-08-04T00:30:35.235Z,71.12
2018-08-04T00:31:06.354Z,71.47
2018-08-04T00:31:37.456Z,71.31
2018-08-04T00:32:08.631Z,71.26
2018-08-04T00:32:39.812Z,71.25
2018-08-04T00:33:11.032Z,70.92
2018-08-04T00:33:42.297Z,71.17
2018-08-04T00:34:13.512Z,70.29
2018-08-04T00:34:44.624Z,70.45
2018-08-04T00:35:15.792Z,70.33
2018-08-04T00:35:46.945Z,70.84
2018-08-04T00:36:18.104Z,70.89
2018-08-04T00:36:49.215Z,70.87
2018-08-04T00:37:20.332Z,71.12
2018-08-04T00:37:51.451Z,70.57
2018-08-04T00:38:22.608Z,70.50
2018-08-04T00:38:53.726Z,71.24
2018-08-04T00:39:24.888Z,70.69
2018-08-04T00:39:56.133Z,71.76
2018-08-04T00:40:27.252Z,71.49
2018-08-04T00:40:58.467Z,71.26
2018-08-04T00:41:29.632Z,71.78
2018-08-04T00:42:00.812Z,71.94
2018-08-04T00:42:31.924Z,71.97
2018-08-04T00:43:03.096Z,71.37
2018-08-04T00:43:34.316Z,71.48
2018-08-04T00:44:05.491Z,72.17
2018-08-04T00:44:36.729Z,71.83
2018-08-04T00:45:07.854Z,72.35
2018-08-04T00:45:39.021Z,71.89
2018-08-04T00:46:10.139Z,72.70
2018-08-04T00:46:41.365Z,72.03
2018-08-04T00:47:12.490Z,72.35
2018-08-04T00:47:43.651Z,72.84
2018-08-04T00:48:14.832Z,73.08
2018-08-04T00:48:45.953Z,73.03
2018-08-04T00:49:17.185Z,73.26
2018-08-04T00:49:48.361Z,72.53
2018-08-04T00:50:19.519Z,72.69
2018-08-04T00:50:50.731Z,72.72
2018-08-04T00:51:21.849Z,72.73
2018-08-04T00:51:52.964Z,72.60
2018-08-04T00:52:24.193Z,72.63
2018-08-04T00:52:55.310Z,72.54
2018-08-04T00:53:26.429Z,73.14
2018-08-04T00:53:57.563Z,72.83
2018-08-04T00:54:28.677Z,72.96
2018-08-04T00:54:59.790Z,72.21
2018-08-04T00:55:30.895Z,72.10
2018-08-04T00:56:02.116Z,72.25
2018-08-04T00:56:33.276Z,72.80
2018-08-04T00:57:04.489Z,72.98
2018-08-04T00:57:35.692Z,72.65
2018-08-04T00:58:06.807Z,72.08
2018-08-04T00:58:38.033Z,72.89
2018-08-04T00:59:09.204Z,72.89
2018-08-04T00:59:40.384Z,72.73
2018-08-04T01:00:11.495Z,72.23
2018-08-04T01:00:42.611Z,72.80
2018-08-04T01:01:13.808Z,72.24
2018-08-04T01:01:44.935Z,72.85
2018-08-04T01:02:16.139Z,72.51
2018-08-04T01:02:47.314Z,72.37
2018-08-04T01:03:18.486Z,72.12
2018-08-04T01:03:49.672Z,72.22
2018-08-04T01:04:20.848Z,72.38
2018-08-04T01:04:51.971Z,72.37
2018-08-04T01:05:23.087Z,73.21
2018-08-04T01:05:54.257Z,72.62
2018-08-04T01:06:25.380Z,72.80
2018-08-04T01:06:56.653Z,73.20
2018-08-04T01:07:27.882Z,73.07
2018-08-04T01:07:59.120Z,72.86
2018-08-04T01:08:30.296Z,72.10
2018-08-04T01:09:01.466Z,72.41
2018-08-04T01:09:32.582Z,72.38
2018-08-04T01:10:03.796Z,72.48
2018-08-04T01:10:34.932Z,73.34
2018-08-04T01:11:06.093Z,72.74
2018-08-04T01:11:37.308Z,72.21
2018-08-04T01:12:08.488Z,73.04
2018-08-04T01:12:39.656Z,71.67
2018-08-04T01:13:10.825Z,72.66
2018-08-04T01:13:42.045Z,72.82
2018-08-04T01:14:13.245Z,72.68
2018-08-04T01:14:44.356Z,72.99
2018-08-04T01:15:15.527Z,72.27
2018-08-04T01:15:46.647Z,72.74
2018-08-04T01:16:17.755Z,72.32
2018-08-04T01:16:48.921Z,72.89
2018-08-04T01:17:20.084Z,72.71
2018-08-04T01:17:51.223Z,73.08
2018-08-04T01:18:22.449Z,73.11
2018-08-04T01:18:53.628Z,72.83
2018-08-04T01:19:24.734Z,72.29
2018-08-04T01:19:55.846Z,72.29
2018-08-04T01:20:27.008Z,72.12
2018-08-04T01:20:58.115Z,71.68
2018-08-04T01:21:29.290Z,72.15
2018-08-04T01:22:00.529Z,71.32
2018-08-04T01:22:31.655Z,71.44
2018-08-04T01:23:02.830Z,72.56
2018-08-04T01:23:33.971Z,72.00
2018-08-04T01:24:05.076Z,72.48
2018-08-04T01:24:36.249Z,73.36
2018-08-04T01:25:07.351Z,73.14
2018-08-04T01:25:38.522Z,72.62
2018-08-04T01:26:09.728Z,72.78
2018-08-04T01:26:40.913Z,73.22
2018-08-04T01:27:12.024Z,73.02
2018-08-04T01:27:43.193Z,72.99
2018-08-04T01:28:14.408Z,72.74
2018-08-04T01:28:45.525Z,72.93
2018-08-04T01:29:16.732Z,72.76
2018-08-04T01:29:47.843Z,72.50
2018-08-04T01:30:19.069Z,72.73
2018-08-04T01:30:50.300Z,72.66
2018-08-04T01:31:21.478Z,72.91
2018-08-04T01:31:52.644Z,73.26
2018-08-04T01:32:23.807Z,72.88
2018-08-04T01:32:55.018Z,73.53
2018-08-04T01:33:26.245Z,72.60
2018-08-04T01:33:57.380Z,73.71
2018-08-04T01:34:28.548Z,74.43
2018-08-04T01:34:59.678Z,73.92
2018-08-04T01:35:30.825Z,73.19
2018-08-04T01:36:01.980Z,74.19
2018-08-04T01:36:33.103Z,74.13
2018-08-04T01:37:04.269Z,74.08
2018-08-04T01:37:35.511Z,74.44
2018-08-04T01:38:06.734Z,74.26
2018-08-04T01:38:37.905Z,73.97
2018-08-04T01:39:09.023Z,73.98
2018-08-04T01:39:40.182Z,74.72
2018-08-04T01:40:11.297Z,73.94
2018-08-04T01:40:42.475Z,74.71
2018-08-04T01:41:13.635Z,73.19
2018-08-04T01:41:44.752Z,73.92
2018-08-04T01:42:15.912Z,74.50
2018-08-04T01:42:47.099Z,75.01
2018-08-04T01:43:18.328Z,74.54
2018-08-04T01:43:49.560Z,74.56
2018-08-04T01:44:20.678Z,74.87
2018-08-04T01:44:51.840Z,75.23
2018-08-04T01:45:23.038Z,74.82
2018-08-04T01:45:54.237Z,74.79
2018-08-04T01:46:25.346Z,75.22
2018-08-04T01:46:56.548Z,74.67
2018-08-04T01:47:27.721Z,75.17
2018-08-04T01:47:58.922Z,75.40
2018-08-04T01:48:30.027Z,75.54
2018-08-04T01:49:01.191Z,74.60
2018-08-04T01:49:32.420Z,74.69
2018-08-04T01:50:03.628Z,75.50
2018-08-04T01:50:34.766Z,74.95
2018-08-04T01:51:05.989Z,75.46
2018-08-04T01:51:37.154Z,75.70
2018-08-04T01:52:08.312Z,75.70
2018-08-04T01:52:39.488Z,75.54
2018-08-04T01:53:10.708Z,75.63
2018-08-04T01:53:41.883Z,75.79
2018-08-04T01:54:13.021Z,75.31
2018-08-04T01:54:44.134Z,75.89
2018-08-04T01:55:15.304Z,75.95
2018-08-04T01:55:46.484Z,76.41
2018-08-04T01:56:17.593Z,76.43
2018-08-04T01:56:48.795Z,76.34
2018-08-04T01:57:19.903Z,76.21
2018-08-04T01:57:51.007Z,76.13
2018-08-04T01:58:22.196Z,76.19
2018-08-04T01:58:53.313Z,76.61
2018-08-04T01:59:24.580Z,76.80
2018-08-04T01:59:55.748Z,76.66
2018-08-04T02:00:26.920Z,76.31
2018-08-04T02:00:58.058Z,76.35
2018-08-04T02:01:29.240Z,76.33
2018-08-04T02:02:00.407Z,76.83
2018-08-04T02:02:31.531Z,76.48
2018-08-04T02:03:02.637Z,77.48
2018-08-04T02:03:33.814Z,76.61
2018-08-04T02:04:04.984Z,76.88
2018-08-04T02:04:36.139Z,75.96
2018-08-04T02:05:07.284Z,75.75
2018-08-04T02:05:38.448Z,76.06
2018-08-04T02:06:09.629Z,76.11
2018-08-04T02:06:40.859Z,76.23
2018-08-04T02:07:12.145Z,76.23
2018-08-04T02:07:43.270Z,75.31
2018-08-04T02:08:14.437Z,76.33
2018-08-04T02:08:45.635Z,76.14
2018-08-04T02:09:16.739Z,76.62
2018-08-04T02:09:47.861Z,75.91
2018-08-04T02:10:19.131Z,76.34
2018-08-04T02:10:50.251Z,75.74
2018-08-04T02:11:21.434Z,75.53
2018-08-04T02:11:52.665Z,76.49
2018-08-04T02:12:23.841Z,75.71
2018-08-04T02:12:54.963Z,75.73
2018-08-04T02:13:26.076Z,75.81
2018-08-04T02:13:57.277Z,75.74
2018-08-04T02:14:28.452Z,75.50
2018-08-04T02:14:59.681Z,76.52
2018-08-04T02:15:30.800Z,76.34
2018-08-04T02:16:01.907Z,76.12
2018-08-04T02:16:33.030Z,76.90
2018-08-04T02:17:04.176Z,76.08
2018-08-04T02:17:35.292Z,76.64
2018-08-04T02:18:06.464Z,77.16
2018-08-04T02:18:37.661Z,76.32
2018-08-04T02:19:08.851Z,76.49
2018-08-04T02:19:40.037Z,76.68
2018-08-04T02:20:11.214Z,77.21
2018-08-04T02:20:42.318Z,76.96
2018-08-04T02:21:13.423Z,76.83
2018-08-04T02:21:44.537Z,76.70
2018-08-04T02:22:15.754Z,77.58
2018-08-04T02:22:46.874Z,76.82
2018-08-04T02:23:18.101Z,77.04
2018-08-04T02:23:49.228Z,77.23
2018-08-04T02:24:20.403Z,77.31
2018-08-04T02:24:51.519Z,77.25
2018-08-04T02:25:22.624Z,77.13
2018-08-04T02:25:53.803Z,77.20
2018-08-04T02:26:25.021Z,76.47
2018-08-04T02:26:56.258Z,77.43
2018-08-04T02:27:27.494Z,76.67
2018-08-04T02:27:58.676Z,76.23
2018-08-04T02:28:29.792Z,77.47
2018-08-04T02:29:01.014Z,76.40
2018-08-04T02:29:32.195Z,76.83
2018-08-04T02:30:03.422Z,77.17
2018-08-04T02:30:34.545Z,77.31
2018-08-04T02:31:05.717Z,76.53
2018-08-04T02:31:36.931Z,76.63
2018-08-04T02:32:08.051Z,77.08
2018-08-04T02:32:39.225Z,76.94
2018-08-04T02:33:10.380Z,77.42
2018-08-04T02:33:41.495Z,77.33
2018-08-04T02:34:12.659Z,76.98
2018-08-04T02:34:43.789Z,77.25
2018-08-04T02:35:14.904Z,77.43
2018-08-04T02:35:46.009Z,77.69
2018-08-04T02:36:17.125Z,77.94
2018-08-04T02:36:48.324Z,77.71
2018-08-04T02:37:19.520Z,77.34
2018-08-04T02:37:50.641Z,77.33
2018-08-04T02:38:21.809Z,77.39
2018-08-04T02:38:52.922Z,77.85
2018-08-04T02:39:24.104Z,77.88
2018-08-04T02:39:55.300Z,77.76
2018-08-04T02:40:26.416Z,77.00
2018-08-04T02:40:57.539Z,77.67
2018-08-04T02:41:28.711Z,77.55
2018-08-04T02:41:59.882Z,77.35
2018-08-04T02:42:31.076Z,77.71
2018-08-04T02:43:02.248Z,76.63
2018-08-04T02:43:33.428Z,77.17
2018-08-04T02:44:04.601Z,76.31
2018-08-04T02:44:35.722Z,76.79
2018-08-04T02:45:06.887Z,77.18
2018-08-04T02:45:38.053Z,77.03
2018-08-04T02:46:09.192Z,77.12
2018-08-04T02:46:40.306Z,76.38
2018-08-04T02:47:11.508Z,76.64
2018-08-04T02:47:42.694Z,76.51
2018-08-04T02:48:13.813Z,76.25
2018-08-04T02:48:44.932Z,76.87
2018-08-04T02:49:16.095Z,76.38
2018-08-04T02:49:47.326Z,76.22
2018-08-04T02:50:18.504Z,76.81
2018-08-04T02:50:49.668Z,76.91
2018-08-04T02:51:20.869Z,76.70
2018-08-04T02:51:52.052Z,76.91
2018-08-04T02:52:23.253Z,76.32
2018-08-04T02:52:54.366Z,75.85
2018-08-04T02:53:25.557Z,76.08
2018-08-04T02:53:56.667Z,76.69
2018-08-04T02:54:27.848Z,76.56
2018-08-04T02:54:59.020Z,76.16
2018-08-04T02:55:30.196Z,76.06
2018-08-04T02:56:01.312Z,76.17
2018-08-04T02:56:32.537Z,76.16
2018-08-04T02:57:03.656Z,75.88
2018-08-04T02:57:34.816Z,76.01
2018-08-04T02:58:05.992Z,76.65
2018-08-04T02:58:37.217Z,76.86
2018-08-04T02:59:08.466Z,76.93
2018-08-04T02:59:39.557Z,76.42
2018-08-04T03:00:10.675Z,76.91
2018-08-04T03:00:41.837Z,76.20
2018-08-04T03:01:12.966Z,76.38
2018-08-04T03:01:44.116Z,76.02
2018-08-04T03:02:15.251Z,77.15
2018-08-04T03:02:46.364Z,76.49
2018-08-04T03:03:17.473Z,76.67
2018-08-04T03:03:48.612Z,77.34
2018-08-04T03:04:19.783Z,76.64
2018-08-04T03:04:50.952Z,77.09
2018-08-04T03:05:22.145Z,77.43
2018-08-04T03:05:53.254Z,76.80
2018-08-04T03:06:24.425Z,77.06
2018-08-04T03:06:55.641Z,77.50
2018-08-04T03:07:26.809Z,77.06
2018-08-04T03:07:58.040Z,77.31
2018-08-04T03:08:29.321Z,77.07
2018-08-04T03:09:00.365Z,77.17
2018-08-04T03:09:31.536Z,77.10
2018-08-04T03:10:02.716Z,77.82
2018-08-04T03:10:33.882Z,77.58
2018-08-04T03:11:05.060Z,77.61
2018-08-04T03:11:36.244Z,77.36
2018-08-04T03:12:07.412Z,77.08
2018-08-04T03:12:38.535Z,77.65
2018-08-04T03:13:09.653Z,77.66
2018-08-04T03:13:40.795Z,78.00
2018-08-04T03:14:11.979Z,77.91
2018-08-04T03:14:43.173Z,77.77
2018-08-04T03:15:14.340Z,78.06
2018-08-04T03:15:45.456Z,77.69
2018-08-04T03:16:16.626Z,78.04
2018-08-04T03:16:47.865Z,77.33
2018-08-04T03:17:18.987Z,77.69
2018-08-04T03:17:50.220Z,77.44
2018-08-04T03:18:21.392Z,77.57
2018-08-04T03:18:52.564Z,77.67
2018-08-04T03:19:23.692Z,77.29
2018-08-04T03:19:54.812Z,77.70
2018-08-04T03:20:25.995Z,77.89
2018-08-04T03:20:57.182Z,78.59
2018-08-04T03:21:28.415Z,78.20
2018-08-04T03:21:59.527Z,78.64
2018-08-04T03:22:30.687Z,78.44
2018-08-04T03:23:01.854Z,79.02
2018-08-04T03:23:33.084Z,78.39
2018-08-04T03:24:04.301Z,78.47
2018-08-04T03:24:35.440Z,79.10
2018-08-04T03:25:06.572Z,78.68
2018-08-04T03:25:37.721Z,78.68
2018-08-04T03:26:08.853Z,78.29
2018-08-04T03:26:39.975Z,78.06
2018-08-04T03:27:11.153Z,78.19
2018-08-04T03:27:42.264Z,78.43
2018-08-04T03:28:13.375Z,78.71
2018-08-04T03:28:44.488Z,78.52
2018-08-04T03:29:15.769Z,78.19
2018-08-04T03:29:46.898Z,78.26
2018-08-04T03:30:18.033Z,77.83
2018-08-04T03:30:49.226Z,77.65
2018-08-04T03:31:20.404Z,77.67
2018-08-04T03:31:51.520Z,76.59
2018-08-04T03:32:22.635Z,77.18
2018-08-04T03:32:53.754Z,76.97
2018-08-04T03:33:24.987Z,76.22
2018-08-04T03:33:56.108Z,76.34
2018-08-04T03:34:27.254Z,75.99
2018-08-04T03:34:58.368Z,75.74
2018-08-04T03:35:29.549Z,76.45
2018-08-04T03:36:00.662Z,75.23
2018-08-04T03:36:31.823Z,75.82
2018-08-04T03:37:02.951Z,76.33
2018-08-04T03:37:34.063Z,75.64
2018-08-04T03:38:05.251Z,75.41
2018-08-04T03:38:36.448Z,76.12
2018-08-04T03:39:07.625Z,76.05
2018-08-04T03:39:38.831Z,76.27
2018-08-04T03:40:09.953Z,75.56
2018-08-04T03:40:41.073Z,76.03
2018-08-04T03:41:12.245Z,75.56
2018-08-04T03:41:43.464Z,75.82
2018-08-04T03:42:14.641Z,75.86
2018-08-04T03:42:45.770Z,76.25
2018-08-04T03:43:16.939Z,75.86
2018-08-04T03:43:48.113Z,76.26
2018-08-04T03:44:19.239Z,75.87
2018-08-04T03:44:50.404Z,75.96
2018-08-04T03:45:21.572Z,75.76
2018-08-04T03:45:52.679Z,75.62
2018-08-04T03:46:23.848Z,75.41
2018-08-04T03:46:55.021Z,75.25
2018-08-04T03:47:26.123Z,75.75
2018-08-04T03:47:57.238Z,75.04
2018-08-04T03:48:28.399Z,75.12
2018-08-04T03:48:59.624Z,75.50
2018-08-04T03:49:30.739Z,75.63
2018-08-04T03:50:01.974Z,75.98
2018-08-04T03:50:33.088Z,75.65
2018-08-04T03:51:04.306Z,75.58
2018-08-04T03:51:35.456Z,76.00
2018-08-04T03:52:06.617Z,76.19
2018-08-04T03:52:37.774Z,76.04
2018-08-04T03:53:08.993Z,75.70
2018-08-04T03:53:40.160Z,75.45
2018-08-04T03:54:11.401Z,75.75
2018-08-04T03:54:42.640Z,75.91
2018-08-04T03:55:13.868Z,76.24
2018-08-04T03:55:45.047Z,76.70
2018-08-04T03:56:16.160Z,76.41
2018-08-04T03:56:47.325Z,76.76
2018-08-04T03:57:18.506Z,76.57
2018-08-04T03:57:49.711Z,76.48
2018-08-04T03:58:20.881Z,76.30
2018-08-04T03:58:52.061Z,76.73
2018-08-04T03:59:23.185Z,76.93
2018-08-04T03:59:54.297Z,76.24
2018-08-04T04:00:25.498Z,76.17
2018-08-04T04:00:56.672Z,76.63
2018-08-04T04:01:27.852Z,75.87
2018-08-04T04:01:58.959Z,76.10
2018-08-04T04:02:30.124Z,76.53
2018-08-04T04:03:01.293Z,75.85
2018-08-04T04:03:32.473Z,75.73
2018-08-04T04:04:03.593Z,75.73
2018-08-04T04:04:34.715Z,76.30
2018-08-04T04:05:05.889Z,76.01
2018-08-04T04:05:37.092Z,75.84
2018-08-04T04:06:08.266Z,76.32
2018-08-04T04:06:39.508Z,75.82
2018-08-04T04:07:10.766Z,76.25
2018-08-04T04:07:41.971Z,76.74
2018-08-04T04:08:13.205Z,76.22
2018-08-04T04:08:44.328Z,76.83
2018-08-04T04:09:15.496Z,76.34
2018-08-04T04:09:46.608Z,75.79
2018-08-04T04:10:17.820Z,76.55
2018-08-04T04:10:48.977Z,76.04
2018-08-04T04:11:20.167Z,75.89
2018-08-04T04:11:51.328Z,76.38
2018-08-04T04:12:22.544Z,75.68
2018-08-04T04:12:53.651Z,75.77
2018-08-04T04:13:24.816Z,75.60
2018-08-04T04:13:55.997Z,75.92
2018-08-04T04:14:27.127Z,75.74
2018-08-04T04:14:58.296Z,75.47
2018-08-04T04:15:29.443Z,74.91
2018-08-04T04:16:00.594Z,74.83
2018-08-04T04:16:31.768Z,75.25
2018-08-04T04:17:02.937Z,75.39
2018-08-04T04:17:34.112Z,75.71
2018-08-04T04:18:05.231Z,75.55
2018-08-04T04:18:36.346Z,74.84
2018-08-04T04:19:07.567Z,75.36
2018-08-04T04:19:38.687Z,75.15
2018-08-04T04:20:09.847Z,74.74
2018-08-04T04:20:41.060Z,74.85
2018-08-04T04:21:12.173Z,75.33
2018-08-04T04:21:43.341Z,74.91
2018-08-04T04:22:14.455Z,75.14
2018-08-04T04:22:45.673Z,75.02
2018-08-04T04:23:16.792Z,75.19
2018-08-04T04:23:47.904Z,75.39
2018-08-04T04:24:19.062Z,74.88
2018-08-04T04:24:50.184Z,74.51
2018-08-04T04:25:21.409Z,75.01
2018-08-04T04:25:52.556Z,73.84
2018-08-04T04:26:23.724Z,74.91
2018-08-04T04:26:54.896Z,74.08
2018-08-04T04:27:26.060Z,74.44
2018-08-04T04:27:57.171Z,74.73
2018-08-04T04:28:28.323Z,74.83
2018-08-04T04:28:59.434Z,74.03
2018-08-04T04:29:30.601Z,73.81
2018-08-04T04:30:01.787Z,73.69
2018-08-04T04:30:32.900Z,74.08
2018-08-04T04:31:04.027Z,73.93
2018-08-04T04:31:35.240Z,73.16
2018-08-04T04:32:06.355Z,72.89
2018-08-04T04:32:37.465Z,72.88
2018-08-04T04:33:08.697Z,72.87
2018-08-04T04:33:39.837Z,71.91
2018-08-04T04:34:10.945Z,72.12
2018-08-04T04:34:42.064Z,71.90
2018-08-04T04:35:13.231Z,71.27
2018-08-04T04:35:44.401Z,71.03
2018-08-04T04:36:15.519Z,70.14
2018-08-04T04:36:46.833Z,69.41
2018-08-04T04:37:18.013Z,68.79
2018-08-04T04:37:49.135Z,68.13
2018-08-04T04:38:20.248Z,67.37
2018-08-04T04:38:51.425Z,66.72
2018-08-04T04:39:22.537Z,66.51
2018-08-04T04:39:53.648Z,66.89
2018-08-04T04:40:24.807Z,66.46
2018-08-04T04:40:55.934Z,67.21
2018-08-04T04:41:27.106Z,67.50
2018-08-04T04:41:58.374Z,67.62
2018-08-04T04:42:29.491Z,67.77
2018-08-04T04:43:00.608Z,67.74
2018-08-04T04:43:31.771Z,66.59
2018-08-04T04:44:02.965Z,66.30
2018-08-04T04:44:34.189Z,66.16
2018-08-04T04:45:05.453Z,66.34
2018-08-04T04:45:36.628Z,66.60
2018-08-04T04:46:07.750Z,65.06
2018-08-04T04:46:38.872Z,65.00
2018-08-04T04:47:10.113Z,65.69
2018-08-04T04:47:41.350Z,64.02
2018-08-04T04:48:12.626Z,63.08
2018-08-04T04:48:43.856Z,62.67
2018-08-04T04:49:14.993Z,60.30
2018-08-04T04:49:46.167Z,59.66
2018-08-04T04:50:17.345Z,58.19
2018-08-04T04:50:48.535Z,57.11
2018-08-04T04:51:19.700Z,57.10
2018-08-04T04:51:50.873Z,55.74
2018-08-04T04:52:22.007Z,53.89
2018-08-04T04:52:53.172Z,53.94
2018-08-04T04:53:24.380Z,53.90
2018-08-04T04:53:55.516Z,52.99
2018-08-04T04:54:26.675Z,52.97
2018-08-04T04:54:57.856Z,52.43
2018-08-04T04:55:29.055Z,52.12
2018-08-04T04:56:00.194Z,52.12
2018-08-04T04:56:31.372Z,51.36
2018-08-04T04:57:02.480Z,50.68
2018-08-04T04:57:33.655Z,50.44
2018-08-04T04:58:04.833Z,50.05
2018-08-04T04:58:35.955Z,49.20
2018-08-04T04:59:07.071Z,48.62
2018-08-04T04:59:38.223Z,48.57
2018-08-04T05:00:09.438Z,49.16
2018-08-04T05:00:40.551Z,49.01
2018-08-04T05:01:11.785Z,48.73
2018-08-04T05:01:42.972Z,48.02
2018-08-04T05:02:14.102Z,47.06
2018-08-04T05:02:45.231Z,46.80
2018-08-04T05:03:16.388Z,46.62
2018-08-04T05:03:47.519Z,46.22
2018-08-04T05:04:18.752Z,45.18
2018-08-04T05:04:49.932Z,44.87
2018-08-04T05:05:21.233Z,45.17
2018-08-04T05:05:52.473Z,45.13
2018-08-04T05:06:23.698Z,44.42
2018-08-04T05:06:54.829Z,44.74
2018-08-04T05:07:26.016Z,44.56
2018-08-04T05:07:57.188Z,44.38
2018-08-04T05:08:28.404Z,44.15
2018-08-04T05:08:59.592Z,43.25
2018-08-04T05:09:30.760Z,43.93
2018-08-04T05:10:01.881Z,44.49
2018-08-04T05:10:33.000Z,43.91
2018-08-04T05:11:04.137Z,43.80
2018-08-04T05:11:35.293Z,43.84
2018-08-04T05:12:06.566Z,43.58
2018-08-04T05:12:37.785Z,42.58
2018-08-04T05:13:09.030Z,43.47
2018-08-04T05:13:40.154Z,43.73
2018-08-04T05:14:11.321Z,43.16
2018-08-04T05:14:42.495Z,43.32
2018-08-04T05:15:13.717Z,43.72
2018-08-04T05:15:44.959Z,43.28
2018-08-04T05:16:16.188Z,43.25
2018-08-04T05:16:47.318Z,43.15
2018-08-04T05:17:18.542Z,44.06
2018-08-04T05:17:49.698Z,44.55
2018-08-04T05:18:20.938Z,44.16
2018-08-04T05:18:52.198Z,44.50
2018-08-04T05:19:23.360Z,44.84
2018-08-04T05:19:54.618Z,43.71
2018-08-04T05:20:25.793Z,44.08
2018-08-04T05:20:57.025Z,43.95
2018-08-04T05:21:28.196Z,43.24
2018-08-04T05:21:59.404Z,44.10
2018-08-04T05:22:30.584Z,43.04
2018-08-04T05:23:01.737Z,43.30
2018-08-04T05:23:32.924Z,43.16
2018-08-04T05:24:04.092Z,42.58
2018-08-04T05:24:35.268Z,42.65
2018-08-04T05:25:06.433Z,42.61
2018-08-04T05:25:37.596Z,42.45
2018-08-04T05:26:08.861Z,43.48
2018-08-04T05:26:40.093Z,42.68
2018-08-04T05:27:11.240Z,42.42
2018-08-04T05:27:42.404Z,42.12
2018-08-04T05:28:13.637Z,42.58
2018-08-04T05:28:44.810Z,42.57
2018-08-04T05:29:16.047Z,42.35
2018-08-04T05:29:47.168Z,41.99
2018-08-04T05:30:18.377Z,41.71
2018-08-04T05:30:49.490Z,41.29
2018-08-04T05:31:20.625Z,41.54
2018-08-04T05:31:51.838Z,41.78
2018-08-04T05:32:23.004Z,42.08
2018-08-04T05:32:54.173Z,41.76
2018-08-04T05:33:25.289Z,41.79
2018-08-04T05:33:56.440Z,41.61
2018-08-04T05:34:27.611Z,41.59
2018-08-04T05:34:58.730Z,41.49
2018-08-04T05:35:29.878Z,41.48
2018-08-04T05:36:01.022Z,41.63
2018-08-04T05:36:32.208Z,41.54
2018-08-04T05:37:03.399Z,41.36
2018-08-04T05:37:34.578Z,42.05
2018-08-04T05:38:05.687Z,41.68
2018-08-04T05:38:36.799Z,41.77
2018-08-04T05:39:07.951Z,41.55
2018-08-04T05:39:39.066Z,41.16
2018-08-04T05:40:10.259Z,41.16
2018-08-04T05:40:41.368Z,41.75
2018-08-04T05:41:12.593Z,41.34
2018-08-04T05:41:43.832Z,41.22
2018-08-04T05:42:14.940Z,41.85
2018-08-04T05:42:46.105Z,41.70
2018-08-04T05:43:17.265Z,41.72
2018-08-04T05:43:48.373Z,41.84
2018-08-04T05:44:19.487Z,41.78
2018-08-04T05:44:50.662Z,42.64
2018-08-04T05:45:21.839Z,42.74
2018-08-04T05:45:52.955Z,42.42
2018-08-04T05:46:24.077Z,42.97
2018-08-04T05:46:55.227Z,43.42
2018-08-04T05:47:26.409Z,43.58
2018-08-04T05:47:57.624Z,43.71
2018-08-04T05:48:28.793Z,43.70
2018-08-04T05:48:59.972Z,43.60
2018-08-04T05:49:31.169Z,43.15
2018-08-04T05:50:02.480Z,43.01
2018-08-04T05:50:33.578Z,43.08
2018-08-04T05:51:04.683Z,42.65
2018-08-04T05:51:35.853Z,42.39
2018-08-04T05:52:06.975Z,42.92
2018-08-04T05:52:38.174Z,43.16
2018-08-04T05:53:09.389Z,43.80
2018-08-04T05:53:40.564Z,44.12
2018-08-04T05:54:11.738Z,44.28
2018-08-04T05:54:42.852Z,44.46
2018-08-04T05:55:14.075Z,44.94
2018-08-04T05:55:45.248Z,44.86
2018-08-04T05:56:16.363Z,45.39
2018-08-04T05:56:47.524Z,46.07
2018-08-04T05:57:18.722Z,46.20
2018-08-04T05:57:49.863Z,46.07
2018-08-04T05:58:20.983Z,46.38
2018-08-04T05:58:52.107Z,46.02
2018-08-04T05:59:23.216Z,45.97
2018-08-04T05:59:54.393Z,45.76
2018-08-04T06:00:25.562Z,46.20
2018-08-04T06:00:56.744Z,46.31
2018-08-04T06:01:27.861Z,46.47
2018-08-04T06:01:59.094Z,46.40
2018-08-04T06:02:30.207Z,45.92
2018-08-04T06:03:01.315Z,46.06
2018-08-04T06:03:32.432Z,45.81
2018-08-04T06:04:03.576Z,45.46
2018-08-04T06:04:34.690Z,45.80
2018-08-04T06:05:05.800Z,45.64
2018-08-04T06:05:36.988Z,45.62
2018-08-04T06:06:08.212Z,45.48
2018-08-04T06:06:39.404Z,45.48
2018-08-04T06:07:10.569Z,44.78
2018-08-04T06:07:41.742Z,44.97
2018-08-04T06:08:12.912Z,45.40
2018-08-04T06:08:44.092Z,45.46
2018-08-04T06:09:15.316Z,45.28
2018-08-04T06:09:46.553Z,45.50
2018-08-04T06:10:17.684Z,45.32
2018-08-04T06:10:48.816Z,45.61
2018-08-04T06:11:19.994Z,45.67
2018-08-04T06:11:51.179Z,45.66
2018-08-04T06:12:22.335Z,45.79
2018-08-04T06:12:53.541Z,45.63
2018-08-04T06:13:24.663Z,45.99
2018-08-04T06:13:55.779Z,46.00
2018-08-04T06:14:26.891Z,45.73
2018-08-04T06:14:58.012Z,45.64
2018-08-04T06:15:29.152Z,45.71
2018-08-04T06:16:00.332Z,45.17
2018-08-04T06:16:31.444Z,45.37
2018-08-04T06:17:02.619Z,45.72
2018-08-04T06:17:33.822Z,46.21
2018-08-04T06:18:04.989Z,46.28
2018-08-04T06:18:36.108Z,45.87
2018-08-04T06:19:07.275Z,45.99
2018-08-04T06:19:38.400Z,46.29
2018-08-04T06:20:09.506Z,45.66
2018-08-04T06:20:40.697Z,45.33
2018-08-04T06:21:11.810Z,45.24
2018-08-04T06:21:42.980Z,44.63
2018-08-04T06:22:14.191Z,44.93
2018-08-04T06:22:45.307Z,45.23
2018-08-04T06:23:16.590Z,45.49
2018-08-04T06:23:47.713Z,45.59
2018-08-04T06:24:18.852Z,45.27
2018-08-04T06:24:49.978Z,45.15
2018-08-04T06:25:21.095Z,45.73
2018-08-04T06:25:52.250Z,46.07
2018-08-04T06:26:23.417Z,45.90
2018-08-04T06:26:54.609Z,45.87
2018-08-04T06:27:25.775Z,46.13
2018-08-04T06:27:56.998Z,46.11
2018-08-04T06:28:28.112Z,46.45
2018-08-04T06:28:59.290Z,46.33
2018-08-04T06:29:30.427Z,46.51
2018-08-04T06:30:01.531Z,47.16
2018-08-04T06:30:32.705Z,46.81
2018-08-04T06:31:03.882Z,47.13
2018-08-04T06:31:35.044Z,46.35
2018-08-04T06:32:06.164Z,46.92
2018-08-04T06:32:37.386Z,46.36
2018-08-04T06:33:08.578Z,46.95
2018-08-04T06:33:39.699Z,47.14
2018-08-04T06:34:10.814Z,46.25
2018-08-04T06:34:42.001Z,46.28
2018-08-04T06:35:13.224Z,46.20
2018-08-04T06:35:44.412Z,46.85
2018-08-04T06:36:15.524Z,46.96
2018-08-04T06:36:46.650Z,46.97
2018-08-04T06:37:17.760Z,47.03
2018-08-04T06:37:48.952Z,46.88
2018-08-04T06:38:20.080Z,46.88
2018-08-04T06:38:51.187Z,46.51
2018-08-04T06:39:22.312Z,46.06
2018-08-04T06:39:53.442Z,46.01
2018-08-04T06:40:24.563Z,45.72
2018-08-04T06:40:55.746Z,44.23
2018-08-04T06:41:26.925Z,44.58